sensor_id;sensor_type;location;lat;lon;timestamp;temperature;humidity
76857;DHT22;69705;44.686;37.628;2023-08-12T00:01:59;23.79;86.14
76857;DHT22;69705;44.686;37.628;2023-08-12T00:04:25;23.81;85.99
76857;DHT22;69705;44.686;37.628;2023-08-12T00:06:52;23.80;85.97
76857;DHT22;69705;44.686;37.628;2023-08-12T00:09:19;23.79;85.76
76857;DHT22;69705;44.686;37.628;2023-08-12T00:11:45;23.77;85.97
76857;DHT22;69705;44.686;37.628;2023-08-12T00:14:12;23.75;86.13
76857;DHT22;69705;44.686;37.628;2023-08-12T00:16:39;23.74;86.24
76857;DHT22;69705;44.686;37.628;2023-08-12T00:19:06;23.72;86.30
76857;DHT22;69705;44.686;37.628;2023-08-12T00:21:54;23.69;86.25
76857;DHT22;69705;44.686;37.628;2023-08-12T00:24:22;23.67;86.32
76857;DHT22;69705;44.686;37.628;2023-08-12T00:26:48;23.66;86.58
76857;DHT22;69705;44.686;37.628;2023-08-12T00:29:15;23.68;86.61
76857;DHT22;69705;44.686;37.628;2023-08-12T00:31:43;23.70;86.50
76857;DHT22;69705;44.686;37.628;2023-08-12T00:34:09;23.69;86.26
76857;DHT22;69705;44.686;37.628;2023-08-12T00:36:36;23.69;86.25
76857;DHT22;69705;44.686;37.628;2023-08-12T00:39:03;23.65;86.16
76857;DHT22;69705;44.686;37.628;2023-08-12T00:41:31;23.59;86.47
76857;DHT22;69705;44.686;37.628;2023-08-12T00:43:57;23.53;86.41
76857;DHT22;69705;44.686;37.628;2023-08-12T00:46:24;23.49;86.38
76857;DHT22;69705;44.686;37.628;2023-08-12T00:48:53;23.41;86.50
76857;DHT22;69705;44.686;37.628;2023-08-12T00:51:27;23.39;86.56
76857;DHT22;69705;44.686;37.628;2023-08-12T00:53:54;23.36;86.99
76857;DHT22;69705;44.686;37.628;2023-08-12T00:56:22;23.35;87.22
76857;DHT22;69705;44.686;37.628;2023-08-12T00:58:49;23.34;87.13
76857;DHT22;69705;44.686;37.628;2023-08-12T01:01:16;23.36;87.15
76857;DHT22;69705;44.686;37.628;2023-08-12T01:03:44;23.37;86.57
76857;DHT22;69705;44.686;37.628;2023-08-12T01:06:16;23.36;87.37
76857;DHT22;69705;44.686;37.628;2023-08-12T01:08:43;23.37;87.06
76857;DHT22;69705;44.686;37.628;2023-08-12T01:11:24;23.40;86.98
76857;DHT22;69705;44.686;37.628;2023-08-12T01:14:00;23.38;87.13
76857;DHT22;69705;44.686;37.628;2023-08-12T01:16:33;23.38;87.10
76857;DHT22;69705;44.686;37.628;2023-08-12T01:19:05;23.40;86.61
76857;DHT22;69705;44.686;37.628;2023-08-12T01:21:33;23.38;86.86
76857;DHT22;69705;44.686;37.628;2023-08-12T01:24:03;23.41;86.99
76857;DHT22;69705;44.686;37.628;2023-08-12T01:26:30;23.42;87.15
76857;DHT22;69705;44.686;37.628;2023-08-12T01:28:57;23.41;87.03
76857;DHT22;69705;44.686;37.628;2023-08-12T01:31:36;23.40;87.03
76857;DHT22;69705;44.686;37.628;2023-08-12T01:37:00;23.30;87.48
76857;DHT22;69705;44.686;37.628;2023-08-12T01:39:30;23.30;87.34
76857;DHT22;69705;44.686;37.628;2023-08-12T01:41:58;23.28;87.51
76857;DHT22;69705;44.686;37.628;2023-08-12T01:44:25;23.30;87.54
76857;DHT22;69705;44.686;37.628;2023-08-12T01:46:52;23.25;87.57
76857;DHT22;69705;44.686;37.628;2023-08-12T01:49:20;23.26;87.72
76857;DHT22;69705;44.686;37.628;2023-08-12T01:51:49;23.25;87.72
76857;DHT22;69705;44.686;37.628;2023-08-12T01:54:16;23.26;87.91
76857;DHT22;69705;44.686;37.628;2023-08-12T01:56:43;23.24;87.93
76857;DHT22;69705;44.686;37.628;2023-08-12T01:59:10;23.24;87.58
76857;DHT22;69705;44.686;37.628;2023-08-12T02:01:37;23.22;87.69
76857;DHT22;69705;44.686;37.628;2023-08-12T02:04:03;23.23;87.78
76857;DHT22;69705;44.686;37.628;2023-08-12T02:06:30;23.23;87.66
76857;DHT22;69705;44.686;37.628;2023-08-12T02:08:57;23.25;87.47
76857;DHT22;69705;44.686;37.628;2023-08-12T02:11:24;23.23;87.43
76857;DHT22;69705;44.686;37.628;2023-08-12T02:13:53;23.18;87.54
76857;DHT22;69705;44.686;37.628;2023-08-12T02:16:20;23.18;87.54
76857;DHT22;69705;44.686;37.628;2023-08-12T02:18:47;23.13;87.83
76857;DHT22;69705;44.686;37.628;2023-08-12T02:21:14;23.12;87.93
76857;DHT22;69705;44.686;37.628;2023-08-12T02:23:41;23.09;88.29
76857;DHT22;69705;44.686;37.628;2023-08-12T02:26:08;23.05;88.32
76857;DHT22;69705;44.686;37.628;2023-08-12T02:28:40;23.01;88.28
76857;DHT22;69705;44.686;37.628;2023-08-12T02:31:07;23.00;88.15
76857;DHT22;69705;44.686;37.628;2023-08-12T02:33:34;23.00;88.05
76857;DHT22;69705;44.686;37.628;2023-08-12T02:36:00;23.02;88.03
76857;DHT22;69705;44.686;37.628;2023-08-12T02:38:27;23.01;88.20
76857;DHT22;69705;44.686;37.628;2023-08-12T02:40:55;23.05;88.17
76857;DHT22;69705;44.686;37.628;2023-08-12T02:43:22;23.05;88.05
76857;DHT22;69705;44.686;37.628;2023-08-12T02:45:48;23.03;88.69
76857;DHT22;69705;44.686;37.628;2023-08-12T02:48:15;23.01;89.10
76857;DHT22;69705;44.686;37.628;2023-08-12T02:50:42;23.03;89.23
76857;DHT22;69705;44.686;37.628;2023-08-12T02:53:09;23.05;89.05
76857;DHT22;69705;44.686;37.628;2023-08-12T02:55:36;23.07;89.19
76857;DHT22;69705;44.686;37.628;2023-08-12T02:58:04;23.08;89.02
76857;DHT22;69705;44.686;37.628;2023-08-12T03:00:31;23.10;88.90
76857;DHT22;69705;44.686;37.628;2023-08-12T03:02:58;23.14;88.89
76857;DHT22;69705;44.686;37.628;2023-08-12T03:05:25;23.18;88.97
76857;DHT22;69705;44.686;37.628;2023-08-12T03:07:52;23.21;89.03
76857;DHT22;69705;44.686;37.628;2023-08-12T03:10:19;23.22;89.21
76857;DHT22;69705;44.686;37.628;2023-08-12T03:12:46;23.24;89.12
76857;DHT22;69705;44.686;37.628;2023-08-12T03:15:13;23.29;89.09
76857;DHT22;69705;44.686;37.628;2023-08-12T03:17:40;23.35;89.32
76857;DHT22;69705;44.686;37.628;2023-08-12T03:20:09;23.39;89.32
76857;DHT22;69705;44.686;37.628;2023-08-12T03:22:37;23.42;89.39
76857;DHT22;69705;44.686;37.628;2023-08-12T03:25:04;23.45;89.38
76857;DHT22;69705;44.686;37.628;2023-08-12T03:27:33;23.53;89.41
76857;DHT22;69705;44.686;37.628;2023-08-12T03:30:00;23.57;89.15
76857;DHT22;69705;44.686;37.628;2023-08-12T03:32:27;23.62;89.26
76857;DHT22;69705;44.686;37.628;2023-08-12T03:34:55;23.69;89.39
76857;DHT22;69705;44.686;37.628;2023-08-12T03:37:22;23.74;89.66
76857;DHT22;69705;44.686;37.628;2023-08-12T03:39:53;23.83;89.79
76857;DHT22;69705;44.686;37.628;2023-08-12T03:42:20;23.91;89.73
76857;DHT22;69705;44.686;37.628;2023-08-12T03:44:48;24.00;89.59
76857;DHT22;69705;44.686;37.628;2023-08-12T03:47:16;24.10;89.34
76857;DHT22;69705;44.686;37.628;2023-08-12T03:49:48;24.18;88.83
76857;DHT22;69705;44.686;37.628;2023-08-12T03:52:15;24.24;88.68
76857;DHT22;69705;44.686;37.628;2023-08-12T03:54:42;24.31;88.35
76857;DHT22;69705;44.686;37.628;2023-08-12T03:57:10;24.39;88.24
76857;DHT22;69705;44.686;37.628;2023-08-12T03:59:43;24.41;88.20
76857;DHT22;69705;44.686;37.628;2023-08-12T04:02:10;24.48;87.46
76857;DHT22;69705;44.686;37.628;2023-08-12T04:04:37;24.56;86.90
76857;DHT22;69705;44.686;37.628;2023-08-12T04:07:04;24.63;86.53
76857;DHT22;69705;44.686;37.628;2023-08-12T04:09:31;24.72;86.48
76857;DHT22;69705;44.686;37.628;2023-08-12T04:11:58;24.78;86.45
76857;DHT22;69705;44.686;37.628;2023-08-12T04:14:25;24.83;85.77
76857;DHT22;69705;44.686;37.628;2023-08-12T04:16:51;24.88;85.68
76857;DHT22;69705;44.686;37.628;2023-08-12T04:19:18;24.89;86.05
76857;DHT22;69705;44.686;37.628;2023-08-12T04:21:47;24.93;85.73
76857;DHT22;69705;44.686;37.628;2023-08-12T04:24:14;24.95;85.14
76857;DHT22;69705;44.686;37.628;2023-08-12T04:26:41;24.95;84.84
76857;DHT22;69705;44.686;37.628;2023-08-12T04:29:08;24.98;84.93
76857;DHT22;69705;44.686;37.628;2023-08-12T04:31:38;24.98;85.31
76857;DHT22;69705;44.686;37.628;2023-08-12T04:34:08;25.04;84.48
76857;DHT22;69705;44.686;37.628;2023-08-12T04:36:35;25.07;84.81
76857;DHT22;69705;44.686;37.628;2023-08-12T04:39:05;25.10;84.43
76857;DHT22;69705;44.686;37.628;2023-08-12T04:41:32;25.15;84.07
76857;DHT22;69705;44.686;37.628;2023-08-12T04:44:01;25.14;84.23
76857;DHT22;69705;44.686;37.628;2023-08-12T04:46:29;25.13;84.19
76857;DHT22;69705;44.686;37.628;2023-08-12T04:48:56;25.12;83.84
76857;DHT22;69705;44.686;37.628;2023-08-12T04:51:23;25.10;84.16
76857;DHT22;69705;44.686;37.628;2023-08-12T04:53:50;25.16;83.96
76857;DHT22;69705;44.686;37.628;2023-08-12T04:56:17;25.25;84.00
76857;DHT22;69705;44.686;37.628;2023-08-12T04:58:45;25.36;83.44
76857;DHT22;69705;44.686;37.628;2023-08-12T05:01:17;25.48;83.04
76857;DHT22;69705;44.686;37.628;2023-08-12T05:03:44;25.58;82.10
76857;DHT22;69705;44.686;37.628;2023-08-12T05:06:11;25.66;82.24
76857;DHT22;69705;44.686;37.628;2023-08-12T05:08:38;25.77;81.22
76857;DHT22;69705;44.686;37.628;2023-08-12T05:11:05;25.84;81.07
76857;DHT22;69705;44.686;37.628;2023-08-12T05:13:32;25.92;81.27
76857;DHT22;69705;44.686;37.628;2023-08-12T05:15:59;25.98;80.67
76857;DHT22;69705;44.686;37.628;2023-08-12T05:18:26;26.03;79.27
76857;DHT22;69705;44.686;37.628;2023-08-12T05:20:55;26.11;79.49
76857;DHT22;69705;44.686;37.628;2023-08-12T05:23:22;26.17;78.70
76857;DHT22;69705;44.686;37.628;2023-08-12T05:25:49;26.21;77.99
76857;DHT22;69705;44.686;37.628;2023-08-12T05:28:16;26.30;78.37
76857;DHT22;69705;44.686;37.628;2023-08-12T05:30:43;26.37;77.02
76857;DHT22;69705;44.686;37.628;2023-08-12T05:33:10;26.43;76.73
76857;DHT22;69705;44.686;37.628;2023-08-12T05:35:37;26.53;75.65
76857;DHT22;69705;44.686;37.628;2023-08-12T05:38:03;26.61;74.57
76857;DHT22;69705;44.686;37.628;2023-08-12T05:40:30;26.66;73.74
76857;DHT22;69705;44.686;37.628;2023-08-12T05:42:57;26.72;72.83
76857;DHT22;69705;44.686;37.628;2023-08-12T05:45:24;26.81;73.32
76857;DHT22;69705;44.686;37.628;2023-08-12T05:47:51;26.90;71.80
76857;DHT22;69705;44.686;37.628;2023-08-12T05:50:17;26.94;71.45
76857;DHT22;69705;44.686;37.628;2023-08-12T05:52:44;27.04;72.37
76857;DHT22;69705;44.686;37.628;2023-08-12T05:55:11;27.12;70.46
76857;DHT22;69705;44.686;37.628;2023-08-12T05:57:38;27.19;71.41
76857;DHT22;69705;44.686;37.628;2023-08-12T06:00:05;27.25;70.76
76857;DHT22;69705;44.686;37.628;2023-08-12T06:02:37;27.29;70.01
76857;DHT22;69705;44.686;37.628;2023-08-12T06:05:05;27.34;70.33
76857;DHT22;69705;44.686;37.628;2023-08-12T06:07:31;27.43;70.71
76857;DHT22;69705;44.686;37.628;2023-08-12T06:09:59;27.51;70.30
76857;DHT22;69705;44.686;37.628;2023-08-12T06:12:25;27.54;68.91
76857;DHT22;69705;44.686;37.628;2023-08-12T06:14:52;27.61;68.50
76857;DHT22;69705;44.686;37.628;2023-08-12T06:17:18;27.70;67.65
76857;DHT22;69705;44.686;37.628;2023-08-12T06:19:45;27.72;67.39
76857;DHT22;69705;44.686;37.628;2023-08-12T06:22:11;27.79;68.43
76857;DHT22;69705;44.686;37.628;2023-08-12T06:24:38;27.89;67.64
76857;DHT22;69705;44.686;37.628;2023-08-12T06:27:05;27.98;66.41
76857;DHT22;69705;44.686;37.628;2023-08-12T06:29:31;28.02;67.21
76857;DHT22;69705;44.686;37.628;2023-08-12T06:31:58;28.10;66.42
76857;DHT22;69705;44.686;37.628;2023-08-12T06:34:24;28.16;66.86
76857;DHT22;69705;44.686;37.628;2023-08-12T06:36:51;28.25;67.23
76857;DHT22;69705;44.686;37.628;2023-08-12T06:39:23;28.31;65.98
76857;DHT22;69705;44.686;37.628;2023-08-12T06:41:50;28.32;64.39
76857;DHT22;69705;44.686;37.628;2023-08-12T06:44:24;28.33;65.08
76857;DHT22;69705;44.686;37.628;2023-08-12T06:46:52;28.39;64.17
76857;DHT22;69705;44.686;37.628;2023-08-12T06:49:19;28.49;65.16
76857;DHT22;69705;44.686;37.628;2023-08-12T06:51:45;28.58;64.77
76857;DHT22;69705;44.686;37.628;2023-08-12T06:54:12;28.60;63.79
76857;DHT22;69705;44.686;37.628;2023-08-12T06:56:40;28.67;63.34
76857;DHT22;69705;44.686;37.628;2023-08-12T06:59:06;28.76;63.44
76857;DHT22;69705;44.686;37.628;2023-08-12T07:01:33;28.85;62.98
76857;DHT22;69705;44.686;37.628;2023-08-12T07:04:00;28.88;62.28
76857;DHT22;69705;44.686;37.628;2023-08-12T07:06:27;28.93;61.35
76857;DHT22;69705;44.686;37.628;2023-08-12T07:08:54;28.90;61.63
76857;DHT22;69705;44.686;37.628;2023-08-12T07:11:22;29.00;61.57
76857;DHT22;69705;44.686;37.628;2023-08-12T07:13:49;29.14;61.61
76857;DHT22;69705;44.686;37.628;2023-08-12T07:16:16;29.29;60.86
76857;DHT22;69705;44.686;37.628;2023-08-12T07:18:43;29.38;59.44
76857;DHT22;69705;44.686;37.628;2023-08-12T07:21:09;29.37;57.94
76857;DHT22;69705;44.686;37.628;2023-08-12T07:23:36;29.43;58.68
76857;DHT22;69705;44.686;37.628;2023-08-12T07:26:03;29.54;59.04
76857;DHT22;69705;44.686;37.628;2023-08-12T07:28:30;29.66;60.25
76857;DHT22;69705;44.686;37.628;2023-08-12T07:30:57;29.74;59.19
76857;DHT22;69705;44.686;37.628;2023-08-12T07:33:24;29.89;57.64
76857;DHT22;69705;44.686;37.628;2023-08-12T07:35:51;30.00;57.79
76857;DHT22;69705;44.686;37.628;2023-08-12T07:38:18;30.02;57.06
76857;DHT22;69705;44.686;37.628;2023-08-12T07:40:45;30.12;55.24
76857;DHT22;69705;44.686;37.628;2023-08-12T07:43:12;30.17;55.90
76857;DHT22;69705;44.686;37.628;2023-08-12T07:45:39;30.22;56.72
76857;DHT22;69705;44.686;37.628;2023-08-12T07:48:06;30.26;55.36
76857;DHT22;69705;44.686;37.628;2023-08-12T07:50:33;30.27;55.03
76857;DHT22;69705;44.686;37.628;2023-08-12T07:53:00;30.37;55.08
76857;DHT22;69705;44.686;37.628;2023-08-12T07:55:27;30.53;55.94
76857;DHT22;69705;44.686;37.628;2023-08-12T07:57:54;30.65;55.71
76857;DHT22;69705;44.686;37.628;2023-08-12T08:00:21;30.69;54.94
76857;DHT22;69705;44.686;37.628;2023-08-12T08:02:48;30.76;53.61
76857;DHT22;69705;44.686;37.628;2023-08-12T08:05:15;30.80;54.24
76857;DHT22;69705;44.686;37.628;2023-08-12T08:07:42;30.62;53.07
76857;DHT22;69705;44.686;37.628;2023-08-12T08:10:09;30.67;54.25
76857;DHT22;69705;44.686;37.628;2023-08-12T08:12:36;30.69;52.56
76857;DHT22;69705;44.686;37.628;2023-08-12T08:15:04;30.79;56.38
76857;DHT22;69705;44.686;37.628;2023-08-12T08:17:31;30.83;56.75
76857;DHT22;69705;44.686;37.628;2023-08-12T08:19:58;30.77;54.75
76857;DHT22;69705;44.686;37.628;2023-08-12T08:22:30;30.83;52.85
76857;DHT22;69705;44.686;37.628;2023-08-12T08:24:57;30.85;55.08
76857;DHT22;69705;44.686;37.628;2023-08-12T08:27:24;31.01;52.14
76857;DHT22;69705;44.686;37.628;2023-08-12T08:29:52;30.83;52.25
76857;DHT22;69705;44.686;37.628;2023-08-12T08:32:19;31.00;54.30
76857;DHT22;69705;44.686;37.628;2023-08-12T08:34:46;31.18;53.68
76857;DHT22;69705;44.686;37.628;2023-08-12T08:37:13;31.05;51.80
76857;DHT22;69705;44.686;37.628;2023-08-12T08:39:40;31.07;53.13
76857;DHT22;69705;44.686;37.628;2023-08-12T08:42:09;31.13;51.50
76857;DHT22;69705;44.686;37.628;2023-08-12T08:44:40;31.07;51.03
76857;DHT22;69705;44.686;37.628;2023-08-12T08:47:09;31.15;52.02
76857;DHT22;69705;44.686;37.628;2023-08-12T08:49:36;31.09;51.68
76857;DHT22;69705;44.686;37.628;2023-08-12T08:52:04;31.09;52.23
76857;DHT22;69705;44.686;37.628;2023-08-12T08:54:31;31.41;52.59
76857;DHT22;69705;44.686;37.628;2023-08-12T08:56:58;31.67;50.34
76857;DHT22;69705;44.686;37.628;2023-08-12T08:59:25;31.96;49.68
76857;DHT22;69705;44.686;37.628;2023-08-12T09:01:53;32.28;48.12
76857;DHT22;69705;44.686;37.628;2023-08-12T09:04:22;32.50;49.21
76857;DHT22;69705;44.686;37.628;2023-08-12T09:06:52;32.69;47.60
76857;DHT22;69705;44.686;37.628;2023-08-12T09:09:20;32.98;47.96
76857;DHT22;69705;44.686;37.628;2023-08-12T09:11:51;33.19;46.80
76857;DHT22;69705;44.686;37.628;2023-08-12T09:14:19;33.00;46.51
76857;DHT22;69705;44.686;37.628;2023-08-12T09:16:51;32.81;47.77
76857;DHT22;69705;44.686;37.628;2023-08-12T09:19:18;32.62;47.02
76857;DHT22;69705;44.686;37.628;2023-08-12T09:21:53;32.57;47.58
76857;DHT22;69705;44.686;37.628;2023-08-12T09:24:27;32.73;45.73
76857;DHT22;69705;44.686;37.628;2023-08-12T09:26:54;32.77;44.92
76857;DHT22;69705;44.686;37.628;2023-08-12T09:29:31;32.87;45.47
76857;DHT22;69705;44.686;37.628;2023-08-12T09:32:12;33.09;45.30
76857;DHT22;69705;44.686;37.628;2023-08-12T09:34:52;33.37;45.81
76857;DHT22;69705;44.686;37.628;2023-08-12T09:37:20;33.77;43.62
76857;DHT22;69705;44.686;37.628;2023-08-12T09:39:48;33.78;43.45
76857;DHT22;69705;44.686;37.628;2023-08-12T09:42:16;34.06;43.20
76857;DHT22;69705;44.686;37.628;2023-08-12T09:44:44;34.27;43.57
76857;DHT22;69705;44.686;37.628;2023-08-12T09:47:11;34.40;42.64
76857;DHT22;69705;44.686;37.628;2023-08-12T09:49:39;34.56;42.07
76857;DHT22;69705;44.686;37.628;2023-08-12T09:52:07;34.82;43.49
76857;DHT22;69705;44.686;37.628;2023-08-12T09:54:35;35.04;42.43
76857;DHT22;69705;44.686;37.628;2023-08-12T09:57:05;35.06;43.42
76857;DHT22;69705;44.686;37.628;2023-08-12T09:59:35;35.06;43.29
76857;DHT22;69705;44.686;37.628;2023-08-12T10:02:03;35.24;42.70
76857;DHT22;69705;44.686;37.628;2023-08-12T10:04:44;35.35;41.83
76857;DHT22;69705;44.686;37.628;2023-08-12T10:07:12;35.05;42.28
76857;DHT22;69705;44.686;37.628;2023-08-12T10:09:39;34.97;42.34
76857;DHT22;69705;44.686;37.628;2023-08-12T10:12:07;34.97;42.45
76857;DHT22;69705;44.686;37.628;2023-08-12T10:14:34;34.86;43.35
76857;DHT22;69705;44.686;37.628;2023-08-12T10:17:03;34.73;42.56
76857;DHT22;69705;44.686;37.628;2023-08-12T10:19:33;34.65;42.57
76857;DHT22;69705;44.686;37.628;2023-08-12T10:22:03;34.44;43.00
76857;DHT22;69705;44.686;37.628;2023-08-12T10:24:30;34.70;43.77
76857;DHT22;69705;44.686;37.628;2023-08-12T10:26:58;34.92;42.26
76857;DHT22;69705;44.686;37.628;2023-08-12T10:29:25;35.16;42.95
76857;DHT22;69705;44.686;37.628;2023-08-12T10:31:53;35.30;41.89
76857;DHT22;69705;44.686;37.628;2023-08-12T10:34:24;35.51;42.10
76857;DHT22;69705;44.686;37.628;2023-08-12T10:36:55;35.73;41.15
76857;DHT22;69705;44.686;37.628;2023-08-12T10:39:26;35.77;39.94
76857;DHT22;69705;44.686;37.628;2023-08-12T10:41:55;35.71;40.65
76857;DHT22;69705;44.686;37.628;2023-08-12T10:44:38;35.48;42.29
76857;DHT22;69705;44.686;37.628;2023-08-12T10:47:10;35.11;42.81
76857;DHT22;69705;44.686;37.628;2023-08-12T10:49:39;34.69;44.35
76857;DHT22;69705;44.686;37.628;2023-08-12T10:54:52;34.09;44.65
76857;DHT22;69705;44.686;37.628;2023-08-12T10:57:34;33.91;45.26
76857;DHT22;69705;44.686;37.628;2023-08-12T11:00:05;33.94;44.29
76857;DHT22;69705;44.686;37.628;2023-08-12T11:02:34;34.07;44.45
76857;DHT22;69705;44.686;37.628;2023-08-12T11:05:10;33.89;44.10
76857;DHT22;69705;44.686;37.628;2023-08-12T11:07:41;33.78;45.44
76857;DHT22;69705;44.686;37.628;2023-08-12T11:10:16;33.70;46.19
76857;DHT22;69705;44.686;37.628;2023-08-12T11:18:12;34.16;47.11
76857;DHT22;69705;44.686;37.628;2023-08-12T11:20:39;33.87;46.17
76857;DHT22;69705;44.686;37.628;2023-08-12T11:23:07;33.67;46.99
76857;DHT22;69705;44.686;37.628;2023-08-12T11:25:39;33.57;46.42
76857;DHT22;69705;44.686;37.628;2023-08-12T11:28:07;33.49;46.88
76857;DHT22;69705;44.686;37.628;2023-08-12T11:30:35;33.37;46.48
76857;DHT22;69705;44.686;37.628;2023-08-12T11:33:07;33.23;48.14
76857;DHT22;69705;44.686;37.628;2023-08-12T11:35:55;33.17;48.91
76857;DHT22;69705;44.686;37.628;2023-08-12T11:38:23;33.06;50.59
76857;DHT22;69705;44.686;37.628;2023-08-12T11:40:51;33.02;50.27
76857;DHT22;69705;44.686;37.628;2023-08-12T11:43:21;33.04;49.92
76857;DHT22;69705;44.686;37.628;2023-08-12T11:45:49;33.44;49.56
76857;DHT22;69705;44.686;37.628;2023-08-12T11:48:16;33.87;48.06
76857;DHT22;69705;44.686;37.628;2023-08-12T11:50:42;34.12;47.04
76857;DHT22;69705;44.686;37.628;2023-08-12T11:53:09;34.18;46.65
76857;DHT22;69705;44.686;37.628;2023-08-12T11:55:36;34.02;47.57
76857;DHT22;69705;44.686;37.628;2023-08-12T11:58:02;33.86;46.98
76857;DHT22;69705;44.686;37.628;2023-08-12T12:00:29;33.68;47.73
76857;DHT22;69705;44.686;37.628;2023-08-12T12:02:56;33.63;46.83
76857;DHT22;69705;44.686;37.628;2023-08-12T12:05:26;33.71;47.28
76857;DHT22;69705;44.686;37.628;2023-08-12T12:07:54;33.67;47.15
76857;DHT22;69705;44.686;37.628;2023-08-12T12:10:29;33.60;47.15
76857;DHT22;69705;44.686;37.628;2023-08-12T12:13:17;33.38;47.22
76857;DHT22;69705;44.686;37.628;2023-08-12T12:15:44;33.21;47.99
76857;DHT22;69705;44.686;37.628;2023-08-12T12:18:12;33.05;49.98
76857;DHT22;69705;44.686;37.628;2023-08-12T12:20:54;32.86;50.05
76857;DHT22;69705;44.686;37.628;2023-08-12T12:23:22;32.68;49.98
76857;DHT22;69705;44.686;37.628;2023-08-12T12:25:58;32.52;49.89
76857;DHT22;69705;44.686;37.628;2023-08-12T12:28:25;32.41;50.69
76857;DHT22;69705;44.686;37.628;2023-08-12T12:30:51;32.26;51.01
76857;DHT22;69705;44.686;37.628;2023-08-12T12:33:18;32.11;51.87
76857;DHT22;69705;44.686;37.628;2023-08-12T12:35:44;31.97;51.69
76857;DHT22;69705;44.686;37.628;2023-08-12T12:38:12;31.85;51.91
76857;DHT22;69705;44.686;37.628;2023-08-12T12:40:38;31.79;52.30
76857;DHT22;69705;44.686;37.628;2023-08-12T12:43:05;31.68;52.33
76857;DHT22;69705;44.686;37.628;2023-08-12T12:45:31;31.61;52.85
76857;DHT22;69705;44.686;37.628;2023-08-12T12:47:58;31.50;53.06
76857;DHT22;69705;44.686;37.628;2023-08-12T12:50:25;31.40;53.29
76857;DHT22;69705;44.686;37.628;2023-08-12T12:52:51;31.36;53.41
76857;DHT22;69705;44.686;37.628;2023-08-12T12:55:18;31.35;53.82
76857;DHT22;69705;44.686;37.628;2023-08-12T12:57:44;31.31;53.22
76857;DHT22;69705;44.686;37.628;2023-08-12T13:00:11;31.26;52.62
76857;DHT22;69705;44.686;37.628;2023-08-12T13:02:38;31.27;52.83
76857;DHT22;69705;44.686;37.628;2023-08-12T13:05:05;31.33;53.49
76857;DHT22;69705;44.686;37.628;2023-08-12T13:07:32;31.40;53.21
76857;DHT22;69705;44.686;37.628;2023-08-12T13:09:58;31.44;52.19
76857;DHT22;69705;44.686;37.628;2023-08-12T13:12:25;31.56;52.48
76857;DHT22;69705;44.686;37.628;2023-08-12T13:14:52;31.75;51.26
76857;DHT22;69705;44.686;37.628;2023-08-12T13:17:18;31.97;52.67
76857;DHT22;69705;44.686;37.628;2023-08-12T13:19:45;31.89;50.93
76857;DHT22;69705;44.686;37.628;2023-08-12T13:22:11;31.76;51.81
76857;DHT22;69705;44.686;37.628;2023-08-12T13:24:38;31.58;51.62
76857;DHT22;69705;44.686;37.628;2023-08-12T13:27:04;31.49;52.08
76857;DHT22;69705;44.686;37.628;2023-08-12T13:29:31;31.42;53.06
76857;DHT22;69705;44.686;37.628;2023-08-12T13:31:58;31.35;52.91
76857;DHT22;69705;44.686;37.628;2023-08-12T13:34:24;31.36;52.72
76857;DHT22;69705;44.686;37.628;2023-08-12T13:36:51;31.36;53.27
76857;DHT22;69705;44.686;37.628;2023-08-12T13:39:18;31.41;52.76
76857;DHT22;69705;44.686;37.628;2023-08-12T13:41:45;31.58;52.49
76857;DHT22;69705;44.686;37.628;2023-08-12T13:44:12;31.81;52.14
76857;DHT22;69705;44.686;37.628;2023-08-12T13:46:41;32.03;50.22
76857;DHT22;69705;44.686;37.628;2023-08-12T13:49:08;32.02;50.05
76857;DHT22;69705;44.686;37.628;2023-08-12T13:51:35;31.90;51.37
76857;DHT22;69705;44.686;37.628;2023-08-12T13:54:02;31.95;50.95
76857;DHT22;69705;44.686;37.628;2023-08-12T13:56:28;32.02;50.51
76857;DHT22;69705;44.686;37.628;2023-08-12T13:58:55;32.09;49.46
76857;DHT22;69705;44.686;37.628;2023-08-12T14:01:22;32.17;49.31
76857;DHT22;69705;44.686;37.628;2023-08-12T14:03:49;32.16;50.50
76857;DHT22;69705;44.686;37.628;2023-08-12T14:06:16;32.32;49.95
76857;DHT22;69705;44.686;37.628;2023-08-12T14:08:44;32.19;49.08
76857;DHT22;69705;44.686;37.628;2023-08-12T14:11:11;32.02;49.89
76857;DHT22;69705;44.686;37.628;2023-08-12T14:13:38;31.90;49.45
76857;DHT22;69705;44.686;37.628;2023-08-12T14:16:05;31.78;49.74
76857;DHT22;69705;44.686;37.628;2023-08-12T14:18:32;31.72;50.52
76857;DHT22;69705;44.686;37.628;2023-08-12T14:20:59;31.60;50.30
76857;DHT22;69705;44.686;37.628;2023-08-12T14:23:26;31.50;51.85
76857;DHT22;69705;44.686;37.628;2023-08-12T14:25:53;31.41;51.57
76857;DHT22;69705;44.686;37.628;2023-08-12T14:28:25;31.34;52.05
76857;DHT22;69705;44.686;37.628;2023-08-12T14:30:53;31.27;51.46
76857;DHT22;69705;44.686;37.628;2023-08-12T14:33:20;31.21;52.67
76857;DHT22;69705;44.686;37.628;2023-08-12T14:35:49;31.12;51.97
76857;DHT22;69705;44.686;37.628;2023-08-12T14:38:22;31.04;51.95
76857;DHT22;69705;44.686;37.628;2023-08-12T14:40:50;30.97;53.01
76857;DHT22;69705;44.686;37.628;2023-08-12T14:43:17;30.87;53.15
76857;DHT22;69705;44.686;37.628;2023-08-12T14:45:47;30.72;52.91
76857;DHT22;69705;44.686;37.628;2023-08-12T14:48:13;30.66;53.20
76857;DHT22;69705;44.686;37.628;2023-08-12T14:50:41;30.56;54.11
76857;DHT22;69705;44.686;37.628;2023-08-12T14:53:08;30.52;53.31
76857;DHT22;69705;44.686;37.628;2023-08-12T14:55:34;30.50;53.48
76857;DHT22;69705;44.686;37.628;2023-08-12T14:58:01;30.41;54.55
76857;DHT22;69705;44.686;37.628;2023-08-12T15:00:28;30.34;54.55
76857;DHT22;69705;44.686;37.628;2023-08-12T15:02:55;30.33;54.66
76857;DHT22;69705;44.686;37.628;2023-08-12T15:05:22;30.25;54.80
76857;DHT22;69705;44.686;37.628;2023-08-12T15:07:48;30.15;55.02
76857;DHT22;69705;44.686;37.628;2023-08-12T15:10:15;30.08;55.45
76857;DHT22;69705;44.686;37.628;2023-08-12T15:12:42;30.02;55.19
76857;DHT22;69705;44.686;37.628;2023-08-12T15:15:14;30.01;55.07
76857;DHT22;69705;44.686;37.628;2023-08-12T15:17:40;29.95;55.58
76857;DHT22;69705;44.686;37.628;2023-08-12T15:20:07;29.90;56.87
76857;DHT22;69705;44.686;37.628;2023-08-12T15:22:36;29.83;56.31
76857;DHT22;69705;44.686;37.628;2023-08-12T15:25:03;29.75;57.14
76857;DHT22;69705;44.686;37.628;2023-08-12T15:27:30;29.65;56.81
76857;DHT22;69705;44.686;37.628;2023-08-12T15:29:56;29.60;56.97
76857;DHT22;69705;44.686;37.628;2023-08-12T15:32:23;29.51;57.96